sensor_id;sensor_type;location;lat;lon;timestamp;pressure;altitude;pressure_sealevel;temperature;humidity
70930;BME280;58588;48.102;19.682;2023-11-19T00:01:38;100021.69;;;0.84;100.00
70930;BME280;58588;48.102;19.682;2023-11-19T00:04:41;100015.44;;;0.85;100.00
70930;BME280;58588;48.102;19.682;2023-11-19T00:07:42;100015.06;;;0.65;100.00
70930;BME280;58588;48.102;19.682;2023-11-19T00:10:44;100003.16;;;0.71;100.00
70930;BME280;58588;48.102;19.682;2023-11-19T00:13:46;99989.19;;;0.56;100.00
70930;BME280;58588;48.102;19.682;2023-11-19T00:16:50;99990.63;;;0.73;100.00
70930;BME280;58588;48.102;19.682;2023-11-19T00:19:52;99990.28;;;0.77;100.00
70930;BME280;58588;48.102;19.682;2023-11-19T00:22:54;100007.75;;;0.56;100.00
70930;BME280;58588;48.102;19.682;2023-11-19T00:25:56;100017.09;;;0.62;100.00
70930;BME280;58588;48.102;19.682;2023-11-19T00:28:58;100024.69;;;0.79;100.00
70930;BME280;58588;48.102;19.682;2023-11-19T00:32:01;100025.69;;;0.89;100.00
70930;BME280;58588;48.102;19.682;2023-11-19T00:35:04;100023.31;;;0.73;100.00
70930;BME280;58588;48.102;19.682;2023-11-19T00:38:06;100003.91;;;0.73;100.00
70930;BME280;58588;48.102;19.682;2023-11-19T00:41:13;100000.13;;;0.88;100.00
70930;BME280;58588;48.102;19.682;2023-11-19T00:44:17;99999.78;;;0.93;100.00
70930;BME280;58588;48.102;19.682;2023-11-19T00:47:21;100000.44;;;0.96;100.00
70930;BME280;58588;48.102;19.682;2023-11-19T00:50:23;99995.59;;;1.01;100.00
70930;BME280;58588;48.102;19.682;2023-11-19T00:53:25;99999.88;;;1.04;100.00
70930;BME280;58588;48.102;19.682;2023-11-19T00:56:27;99988.91;;;1.09;100.00
70930;BME280;58588;48.102;19.682;2023-11-19T00:59:29;99988.00;;;0.97;100.00
70930;BME280;58588;48.102;19.682;2023-11-19T01:02:32;99993.06;;;1.00;100.00
70930;BME280;58588;48.102;19.682;2023-11-19T01:05:35;99990.94;;;1.05;100.00
70930;BME280;58588;48.102;19.682;2023-11-19T01:08:37;99985.09;;;1.00;100.00
70930;BME280;58588;48.102;19.682;2023-11-19T01:11:46;99979.81;;;1.00;100.00
70930;BME280;58588;48.102;19.682;2023-11-19T01:14:48;99982.44;;;1.00;100.00
70930;BME280;58588;48.102;19.682;2023-11-19T01:17:52;99986.34;;;1.07;100.00
70930;BME280;58588;48.102;19.682;2023-11-19T01:20:54;99977.88;;;1.02;100.00
70930;BME280;58588;48.102;19.682;2023-11-19T01:23:55;99979.06;;;0.98;100.00
70930;BME280;58588;48.102;19.682;2023-11-19T01:26:57;99980.13;;;0.95;100.00
70930;BME280;58588;48.102;19.682;2023-11-19T01:30:02;99979.19;;;0.96;100.00
70930;BME280;58588;48.102;19.682;2023-11-19T01:33:11;99965.75;;;1.11;100.00
70930;BME280;58588;48.102;19.682;2023-11-19T01:36:13;99963.16;;;0.98;100.00
70930;BME280;58588;48.102;19.682;2023-11-19T01:39:15;99961.34;;;0.98;100.00
70930;BME280;58588;48.102;19.682;2023-11-19T01:42:17;99976.13;;;0.90;100.00
70930;BME280;58588;48.102;19.682;2023-11-19T01:45:27;99964.06;;;0.86;100.00
70930;BME280;58588;48.102;19.682;2023-11-19T01:48:33;99950.94;;;0.71;100.00
70930;BME280;58588;48.102;19.682;2023-11-19T01:51:36;99954.75;;;0.80;100.00
70930;BME280;58588;48.102;19.682;2023-11-19T01:54:38;99956.44;;;0.81;100.00
70930;BME280;58588;48.102;19.682;2023-11-19T01:57:40;99944.84;;;0.82;100.00
70930;BME280;58588;48.102;19.682;2023-11-19T02:00:44;99945.69;;;0.83;100.00
70930;BME280;58588;48.102;19.682;2023-11-19T02:03:48;99951.25;;;0.79;100.00
70930;BME280;58588;48.102;19.682;2023-11-19T02:06:51;99930.28;;;0.88;100.00
70930;BME280;58588;48.102;19.682;2023-11-19T02:09:56;99935.84;;;0.96;100.00
70930;BME280;58588;48.102;19.682;2023-11-19T02:13:01;99940.63;;;0.79;100.00
70930;BME280;58588;48.102;19.682;2023-11-19T02:16:05;99930.09;;;0.78;100.00
70930;BME280;58588;48.102;19.682;2023-11-19T02:19:10;99945.75;;;0.94;100.00
70930;BME280;58588;48.102;19.682;2023-11-19T02:22:12;99948.13;;;0.86;100.00
70930;BME280;58588;48.102;19.682;2023-11-19T02:25:17;99936.72;;;0.72;100.00
70930;BME280;58588;48.102;19.682;2023-11-19T02:28:22;99932.81;;;0.65;100.00
70930;BME280;58588;48.102;19.682;2023-11-19T02:31:24;99932.84;;;0.52;100.00
70930;BME280;58588;48.102;19.682;2023-11-19T02:34:27;99927.03;;;0.60;100.00
70930;BME280;58588;48.102;19.682;2023-11-19T02:37:29;99923.94;;;0.53;100.00
70930;BME280;58588;48.102;19.682;2023-11-19T02:40:31;99913.34;;;0.77;100.00
70930;BME280;58588;48.102;19.682;2023-11-19T02:43:35;99907.94;;;0.79;100.00
70930;BME280;58588;48.102;19.682;2023-11-19T02:46:39;99901.72;;;0.67;100.00
70930;BME280;58588;48.102;19.682;2023-11-19T02:49:43;99906.06;;;0.68;100.00
70930;BME280;58588;48.102;19.682;2023-11-19T02:52:45;99897.41;;;0.53;100.00
70930;BME280;58588;48.102;19.682;2023-11-19T02:55:47;99889.19;;;0.69;100.00
70930;BME280;58588;48.102;19.682;2023-11-19T02:58:52;99876.25;;;0.41;100.00
70930;BME280;58588;48.102;19.682;2023-11-19T03:01:54;99886.53;;;0.69;100.00
70930;BME280;58588;48.102;19.682;2023-11-19T03:04:56;99896.88;;;0.61;100.00
70930;BME280;58588;48.102;19.682;2023-11-19T03:07:59;99891.38;;;0.75;100.00
70930;BME280;58588;48.102;19.682;2023-11-19T03:11:01;99884.59;;;0.71;100.00
70930;BME280;58588;48.102;19.682;2023-11-19T03:14:06;99877.94;;;0.42;100.00
70930;BME280;58588;48.102;19.682;2023-11-19T03:17:08;99863.84;;;0.65;100.00
70930;BME280;58588;48.102;19.682;2023-11-19T03:20:11;99852.22;;;0.79;100.00
70930;BME280;58588;48.102;19.682;2023-11-19T03:23:15;99846.44;;;0.85;100.00
70930;BME280;58588;48.102;19.682;2023-11-19T03:26:17;99839.41;;;0.73;100.00
70930;BME280;58588;48.102;19.682;2023-11-19T03:29:20;99830.63;;;0.84;100.00
70930;BME280;58588;48.102;19.682;2023-11-19T03:32:23;99842.03;;;0.97;100.00
70930;BME280;58588;48.102;19.682;2023-11-19T03:35:33;99869.88;;;0.91;100.00
70930;BME280;58588;48.102;19.682;2023-11-19T03:38:35;99859.72;;;0.85;100.00
70930;BME280;58588;48.102;19.682;2023-11-19T03:41:37;99836.50;;;0.76;100.00
70930;BME280;58588;48.102;19.682;2023-11-19T03:44:40;99842.06;;;0.73;100.00
70930;BME280;58588;48.102;19.682;2023-11-19T03:47:42;99834.94;;;0.73;100.00
70930;BME280;58588;48.102;19.682;2023-11-19T03:50:44;99831.78;;;0.68;100.00
70930;BME280;58588;48.102;19.682;2023-11-19T03:53:46;99834.69;;;0.76;100.00
70930;BME280;58588;48.102;19.682;2023-11-19T03:56:48;99823.06;;;0.90;100.00
70930;BME280;58588;48.102;19.682;2023-11-19T03:59:51;99819.19;;;0.94;100.00
70930;BME280;58588;48.102;19.682;2023-11-19T04:02:53;99814.63;;;0.96;100.00
70930;BME280;58588;48.102;19.682;2023-11-19T04:05:55;99811.25;;;0.94;100.00
70930;BME280;58588;48.102;19.682;2023-11-19T04:08:57;99783.25;;;1.01;100.00
70930;BME280;58588;48.102;19.682;2023-11-19T04:11:59;99782.25;;;0.80;100.00
70930;BME280;58588;48.102;19.682;2023-11-19T04:15:05;99786.75;;;0.91;100.00
70930;BME280;58588;48.102;19.682;2023-11-19T04:18:07;99790.38;;;1.01;100.00
70930;BME280;58588;48.102;19.682;2023-11-19T04:21:09;99785.53;;;0.95;100.00
70930;BME280;58588;48.102;19.682;2023-11-19T04:24:11;99776.25;;;1.00;100.00
70930;BME280;58588;48.102;19.682;2023-11-19T04:27:14;99780.88;;;1.10;100.00
70930;BME280;58588;48.102;19.682;2023-11-19T04:30:18;99783.75;;;1.06;100.00
70930;BME280;58588;48.102;19.682;2023-11-19T04:33:19;99794.38;;;1.06;100.00
70930;BME280;58588;48.102;19.682;2023-11-19T04:36:21;99778.88;;;0.89;100.00
70930;BME280;58588;48.102;19.682;2023-11-19T04:39:24;99766.25;;;0.93;100.00
70930;BME280;58588;48.102;19.682;2023-11-19T04:42:27;99792.28;;;0.88;100.00
70930;BME280;58588;48.102;19.682;2023-11-19T04:45:31;99781.84;;;1.09;100.00
70930;BME280;58588;48.102;19.682;2023-11-19T04:48:33;99776.97;;;0.91;100.00
70930;BME280;58588;48.102;19.682;2023-11-19T04:51:38;99784.66;;;0.83;100.00
70930;BME280;58588;48.102;19.682;2023-11-19T04:54:43;99767.09;;;0.93;100.00
70930;BME280;58588;48.102;19.682;2023-11-19T04:57:45;99770.72;;;1.03;100.00
70930;BME280;58588;48.102;19.682;2023-11-19T05:00:49;99771.56;;;1.04;100.00
70930;BME280;58588;48.102;19.682;2023-11-19T05:03:51;99777.97;;;1.13;100.00
70930;BME280;58588;48.102;19.682;2023-11-19T05:06:53;99784.97;;;1.14;100.00
70930;BME280;58588;48.102;19.682;2023-11-19T05:09:55;99791.25;;;1.13;100.00
70930;BME280;58588;48.102;19.682;2023-11-19T05:12:56;99795.00;;;1.10;100.00
70930;BME280;58588;48.102;19.682;2023-11-19T05:16:00;99798.63;;;1.20;100.00
70930;BME280;58588;48.102;19.682;2023-11-19T05:19:02;99818.16;;;1.19;100.00
70930;BME280;58588;48.102;19.682;2023-11-19T05:22:04;99820.47;;;1.24;100.00
70930;BME280;58588;48.102;19.682;2023-11-19T05:25:07;99815.78;;;1.27;100.00
70930;BME280;58588;48.102;19.682;2023-11-19T05:28:15;99808.25;;;1.10;100.00
70930;BME280;58588;48.102;19.682;2023-11-19T05:31:19;99806.69;;;1.19;100.00
70930;BME280;58588;48.102;19.682;2023-11-19T05:34:21;99815.66;;;1.29;100.00
70930;BME280;58588;48.102;19.682;2023-11-19T05:37:23;99817.81;;;1.35;100.00
70930;BME280;58588;48.102;19.682;2023-11-19T05:40:25;99817.47;;;1.40;100.00
70930;BME280;58588;48.102;19.682;2023-11-19T05:43:27;99818.06;;;1.21;100.00
70930;BME280;58588;48.102;19.682;2023-11-19T05:46:30;99812.22;;;0.93;100.00
70930;BME280;58588;48.102;19.682;2023-11-19T05:49:32;99817.91;;;0.65;100.00
70930;BME280;58588;48.102;19.682;2023-11-19T05:52:34;99824.25;;;0.86;100.00
70930;BME280;58588;48.102;19.682;2023-11-19T05:55:36;99820.22;;;1.16;100.00
70930;BME280;58588;48.102;19.682;2023-11-19T05:58:45;99820.13;;;1.40;100.00
70930;BME280;58588;48.102;19.682;2023-11-19T06:01:51;99812.75;;;1.54;100.00
70930;BME280;58588;48.102;19.682;2023-11-19T06:04:52;99819.88;;;1.31;100.00
70930;BME280;58588;48.102;19.682;2023-11-19T06:07:54;99818.44;;;1.39;100.00
70930;BME280;58588;48.102;19.682;2023-11-19T06:10:58;99816.88;;;1.47;100.00
70930;BME280;58588;48.102;19.682;2023-11-19T06:14:01;99817.00;;;1.57;100.00
70930;BME280;58588;48.102;19.682;2023-11-19T06:17:07;99821.56;;;1.66;100.00
70930;BME280;58588;48.102;19.682;2023-11-19T06:20:11;99820.75;;;1.77;100.00
70930;BME280;58588;48.102;19.682;2023-11-19T06:23:14;99820.13;;;1.73;100.00
70930;BME280;58588;48.102;19.682;2023-11-19T06:26:16;99817.00;;;1.68;100.00
70930;BME280;58588;48.102;19.682;2023-11-19T06:29:18;99808.78;;;1.71;100.00
70930;BME280;58588;48.102;19.682;2023-11-19T06:32:22;99794.66;;;1.71;100.00
70930;BME280;58588;48.102;19.682;2023-11-19T06:35:23;99777.38;;;1.76;100.00
70930;BME280;58588;48.102;19.682;2023-11-19T06:38:25;99765.28;;;1.83;100.00
70930;BME280;58588;48.102;19.682;2023-11-19T06:41:27;99754.56;;;1.63;100.00
70930;BME280;58588;48.102;19.682;2023-11-19T06:44:29;99775.94;;;1.50;100.00
70930;BME280;58588;48.102;19.682;2023-11-19T06:47:33;99778.34;;;1.42;100.00
70930;BME280;58588;48.102;19.682;2023-11-19T06:50:34;99769.28;;;1.78;100.00
70930;BME280;58588;48.102;19.682;2023-11-19T06:53:36;99779.41;;;1.73;100.00
70930;BME280;58588;48.102;19.682;2023-11-19T06:56:40;99775.19;;;1.93;100.00
70930;BME280;58588;48.102;19.682;2023-11-19T06:59:42;99787.09;;;2.09;100.00
70930;BME280;58588;48.102;19.682;2023-11-19T07:02:45;99791.88;;;2.27;100.00
70930;BME280;58588;48.102;19.682;2023-11-19T07:05:47;99786.84;;;2.45;100.00
70930;BME280;58588;48.102;19.682;2023-11-19T07:08:49;99778.50;;;2.49;100.00
70930;BME280;58588;48.102;19.682;2023-11-19T07:11:51;99766.53;;;2.44;100.00
70930;BME280;58588;48.102;19.682;2023-11-19T07:14:54;99770.13;;;2.54;100.00
70930;BME280;58588;48.102;19.682;2023-11-19T07:17:57;99780.97;;;2.62;100.00
70930;BME280;58588;48.102;19.682;2023-11-19T07:20:59;99767.94;;;2.59;100.00
70930;BME280;58588;48.102;19.682;2023-11-19T07:24:02;99778.19;;;2.63;100.00
70930;BME280;58588;48.102;19.682;2023-11-19T07:27:04;99770.34;;;2.62;100.00
70930;BME280;58588;48.102;19.682;2023-11-19T07:30:07;99769.91;;;2.78;100.00
70930;BME280;58588;48.102;19.682;2023-11-19T07:33:10;99753.47;;;2.73;100.00
70930;BME280;58588;48.102;19.682;2023-11-19T07:36:14;99739.56;;;2.69;100.00
70930;BME280;58588;48.102;19.682;2023-11-19T07:39:16;99726.72;;;2.74;100.00
70930;BME280;58588;48.102;19.682;2023-11-19T07:42:18;99719.22;;;2.26;100.00
70930;BME280;58588;48.102;19.682;2023-11-19T07:45:20;99720.09;;;2.48;100.00
70930;BME280;58588;48.102;19.682;2023-11-19T07:48:23;99718.41;;;2.67;100.00
70930;BME280;58588;48.102;19.682;2023-11-19T07:51:25;99718.59;;;2.76;100.00
70930;BME280;58588;48.102;19.682;2023-11-19T07:54:27;99724.84;;;3.16;100.00
70930;BME280;58588;48.102;19.682;2023-11-19T07:57:29;99730.22;;;3.26;100.00
70930;BME280;58588;48.102;19.682;2023-11-19T08:00:31;99756.50;;;3.10;100.00
70930;BME280;58588;48.102;19.682;2023-11-19T08:03:35;99770.41;;;2.72;100.00
70930;BME280;58588;48.102;19.682;2023-11-19T08:06:37;99754.53;;;3.12;100.00
70930;BME280;58588;48.102;19.682;2023-11-19T08:09:38;99726.66;;;2.85;100.00
70930;BME280;58588;48.102;19.682;2023-11-19T08:12:40;99731.28;;;3.14;100.00
70930;BME280;58588;48.102;19.682;2023-11-19T08:15:42;99763.28;;;3.23;100.00
70930;BME280;58588;48.102;19.682;2023-11-19T08:18:45;99766.16;;;3.32;100.00
70930;BME280;58588;48.102;19.682;2023-11-19T08:21:48;99742.28;;;3.61;100.00
70930;BME280;58588;48.102;19.682;2023-11-19T08:24:50;99705.81;;;3.71;100.00
70930;BME280;58588;48.102;19.682;2023-11-19T08:27:53;99696.91;;;3.91;100.00
70930;BME280;58588;48.102;19.682;2023-11-19T08:30:55;99710.38;;;3.99;100.00
70930;BME280;58588;48.102;19.682;2023-11-19T08:33:58;99723.59;;;4.30;100.00
70930;BME280;58588;48.102;19.682;2023-11-19T08:37:00;99714.34;;;4.44;100.00
70930;BME280;58588;48.102;19.682;2023-11-19T08:40:02;99715.59;;;4.30;100.00
70930;BME280;58588;48.102;19.682;2023-11-19T08:43:05;99700.97;;;4.63;100.00
70930;BME280;58588;48.102;19.682;2023-11-19T08:46:09;99697.69;;;4.79;100.00
70930;BME280;58588;48.102;19.682;2023-11-19T08:49:12;99691.06;;;4.93;100.00
70930;BME280;58588;48.102;19.682;2023-11-19T08:52:14;99692.84;;;5.02;100.00
70930;BME280;58588;48.102;19.682;2023-11-19T08:55:18;99699.50;;;4.78;100.00
70930;BME280;58588;48.102;19.682;2023-11-19T08:58:20;99685.41;;;4.96;100.00
70930;BME280;58588;48.102;19.682;2023-11-19T09:01:22;99688.59;;;5.09;100.00
70930;BME280;58588;48.102;19.682;2023-11-19T09:04:26;99686.50;;;5.13;100.00
70930;BME280;58588;48.102;19.682;2023-11-19T09:07:28;99670.03;;;5.45;100.00
70930;BME280;58588;48.102;19.682;2023-11-19T09:10:30;99662.84;;;5.73;100.00
70930;BME280;58588;48.102;19.682;2023-11-19T09:13:32;99676.72;;;6.04;100.00
70930;BME280;58588;48.102;19.682;2023-11-19T09:16:34;99694.41;;;6.14;100.00
70930;BME280;58588;48.102;19.682;2023-11-19T09:19:37;99680.34;;;6.30;99.77
70930;BME280;58588;48.102;19.682;2023-11-19T09:22:39;99682.84;;;6.14;99.36
70930;BME280;58588;48.102;19.682;2023-11-19T09:25:41;99680.09;;;6.06;100.00
70930;BME280;58588;48.102;19.682;2023-11-19T09:28:43;99674.03;;;6.04;99.87
70930;BME280;58588;48.102;19.682;2023-11-19T09:31:44;99654.81;;;5.73;100.00
70930;BME280;58588;48.102;19.682;2023-11-19T09:34:48;99641.94;;;6.22;99.01
70930;BME280;58588;48.102;19.682;2023-11-19T09:37:50;99642.38;;;6.35;98.82
70930;BME280;58588;48.102;19.682;2023-11-19T09:40:52;99644.25;;;6.60;95.59
70930;BME280;58588;48.102;19.682;2023-11-19T09:43:54;99644.13;;;6.70;95.75
70930;BME280;58588;48.102;19.682;2023-11-19T09:46:58;99638.34;;;6.31;96.58
70930;BME280;58588;48.102;19.682;2023-11-19T09:50:02;99619.59;;;6.57;96.82
70930;BME280;58588;48.102;19.682;2023-11-19T09:53:05;99626.16;;;6.88;97.42
70930;BME280;58588;48.102;19.682;2023-11-19T09:56:07;99626.06;;;6.98;95.42
70930;BME280;58588;48.102;19.682;2023-11-19T09:59:10;99635.69;;;7.17;93.87
70930;BME280;58588;48.102;19.682;2023-11-19T10:02:14;99639.06;;;6.85;95.33
70930;BME280;58588;48.102;19.682;2023-11-19T10:05:19;99642.63;;;7.02;92.68
70930;BME280;58588;48.102;19.682;2023-11-19T10:08:22;99638.66;;;7.06;94.74
70930;BME280;58588;48.102;19.682;2023-11-19T10:11:24;99624.22;;;6.98;93.87
70930;BME280;58588;48.102;19.682;2023-11-19T10:14:27;99629.44;;;6.74;93.22
70930;BME280;58588;48.102;19.682;2023-11-19T10:17:32;99639.53;;;6.80;95.32
70930;BME280;58588;48.102;19.682;2023-11-19T10:20:41;99625.00;;;6.39;93.08
70930;BME280;58588;48.102;19.682;2023-11-19T10:23:50;99617.75;;;6.31;98.69
70930;BME280;58588;48.102;19.682;2023-11-19T10:26:56;99619.22;;;6.26;98.27
70930;BME280;58588;48.102;19.682;2023-11-19T10:29:59;99618.38;;;6.25;100.00
70930;BME280;58588;48.102;19.682;2023-11-19T10:33:05;99629.31;;;6.58;99.99
70930;BME280;58588;48.102;19.682;2023-11-19T10:36:09;99628.47;;;6.57;97.51
70930;BME280;58588;48.102;19.682;2023-11-19T10:39:12;99622.72;;;6.26;98.76
70930;BME280;58588;48.102;19.682;2023-11-19T10:42:15;99616.50;;;6.43;98.46
70930;BME280;58588;48.102;19.682;2023-11-19T10:45:22;99606.66;;;6.26;94.83
70930;BME280;58588;48.102;19.682;2023-11-19T10:48:24;99603.03;;;6.35;96.02
70930;BME280;58588;48.102;19.682;2023-11-19T10:51:29;99600.56;;;6.16;95.97
70930;BME280;58588;48.102;19.682;2023-11-19T10:54:31;99588.84;;;6.17;96.57
70930;BME280;58588;48.102;19.682;2023-11-19T10:57:36;99594.41;;;6.24;96.13
70930;BME280;58588;48.102;19.682;2023-11-19T11:00:39;99591.06;;;6.22;96.48
70930;BME280;58588;48.102;19.682;2023-11-19T11:03:44;99593.38;;;6.16;97.03
70930;BME280;58588;48.102;19.682;2023-11-19T11:06:49;99582.84;;;5.97;96.21
70930;BME280;58588;48.102;19.682;2023-11-19T11:09:51;99571.59;;;5.76;97.26
70930;BME280;58588;48.102;19.682;2023-11-19T11:12:54;99559.16;;;6.02;96.60
70930;BME280;58588;48.102;19.682;2023-11-19T11:15:59;99564.25;;;6.13;96.50
70930;BME280;58588;48.102;19.682;2023-11-19T11:19:01;99562.41;;;6.14;96.83
70930;BME280;58588;48.102;19.682;2023-11-19T11:22:06;99557.69;;;6.08;97.73
70930;BME280;58588;48.102;19.682;2023-11-19T11:25:20;99557.66;;;6.26;96.06
70930;BME280;58588;48.102;19.682;2023-11-19T11:28:34;99559.91;;;6.38;98.83
70930;BME280;58588;48.102;19.682;2023-11-19T11:31:43;99553.38;;;6.41;98.29
70930;BME280;58588;48.102;19.682;2023-11-19T11:35:01;99547.94;;;6.51;97.26
70930;BME280;58588;48.102;19.682;2023-11-19T11:38:11;99549.44;;;6.27;96.79
70930;BME280;58588;48.102;19.682;2023-11-19T11:41:17;99550.09;;;6.21;98.42
70930;BME280;58588;48.102;19.682;2023-11-19T11:44:59;99543.09;;;6.28;98.49
70930;BME280;58588;48.102;19.682;2023-11-19T11:48:15;99542.38;;;6.18;98.81
70930;BME280;58588;48.102;19.682;2023-11-19T11:51:17;99536.91;;;6.28;99.47
70930;BME280;58588;48.102;19.682;2023-11-19T11:54:28;99524.53;;;6.27;97.69
70930;BME280;58588;48.102;19.682;2023-11-19T11:57:36;99522.31;;;6.22;98.76
70930;BME280;58588;48.102;19.682;2023-11-19T12:00:43;99525.72;;;6.32;99.50
70930;BME280;58588;48.102;19.682;2023-11-19T12:03:50;99519.25;;;6.17;100.00
70930;BME280;58588;48.102;19.682;2023-11-19T12:07:03;99522.88;;;6.34;99.46
70930;BME280;58588;48.102;19.682;2023-11-19T12:10:09;99498.97;;;6.32;99.01
70930;BME280;58588;48.102;19.682;2023-11-19T12:13:12;99498.28;;;6.30;99.92
70930;BME280;58588;48.102;19.682;2023-11-19T12:16:16;99492.34;;;6.44;99.56
70930;BME280;58588;48.102;19.682;2023-11-19T12:19:19;99461.88;;;6.46;99.46
70930;BME280;58588;48.102;19.682;2023-11-19T12:22:21;99464.81;;;6.60;99.36
70930;BME280;58588;48.102;19.682;2023-11-19T12:25:34;99460.13;;;6.62;99.43
70930;BME280;58588;48.102;19.682;2023-11-19T12:28:40;99451.53;;;6.51;99.04
70930;BME280;58588;48.102;19.682;2023-11-19T12:31:53;99459.44;;;6.60;99.63
70930;BME280;58588;48.102;19.682;2023-11-19T12:34:55;99468.81;;;6.64;99.05
70930;BME280;58588;48.102;19.682;2023-11-19T12:37:57;99452.09;;;6.70;99.85
70930;BME280;58588;48.102;19.682;2023-11-19T12:41:05;99456.69;;;6.86;99.55
70930;BME280;58588;48.102;19.682;2023-11-19T12:44:11;99444.28;;;6.85;98.17
70930;BME280;58588;48.102;19.682;2023-11-19T12:47:13;99437.09;;;6.86;98.44
70930;BME280;58588;48.102;19.682;2023-11-19T12:50:16;99417.56;;;6.59;100.00
70930;BME280;58588;48.102;19.682;2023-11-19T12:53:19;99417.81;;;6.32;100.00
70930;BME280;58588;48.102;19.682;2023-11-19T12:56:25;99395.88;;;6.28;100.00
70930;BME280;58588;48.102;19.682;2023-11-19T12:59:27;99396.22;;;6.33;100.00
70930;BME280;58588;48.102;19.682;2023-11-19T13:02:44;99409.13;;;6.30;100.00
70930;BME280;58588;48.102;19.682;2023-11-19T13:05:46;99406.94;;;6.33;100.00
70930;BME280;58588;48.102;19.682;2023-11-19T13:08:49;99405.16;;;6.08;100.00
70930;BME280;58588;48.102;19.682;2023-11-19T13:11:55;99394.31;;;6.17;100.00
70930;BME280;58588;48.102;19.682;2023-11-19T13:14:58;99399.78;;;6.08;100.00
70930;BME280;58588;48.102;19.682;2023-11-19T13:18:01;99394.28;;;6.09;100.00
70930;BME280;58588;48.102;19.682;2023-11-19T13:21:03;99390.69;;;6.27;100.00
70930;BME280;58588;48.102;19.682;2023-11-19T13:24:06;99401.06;;;5.96;100.00
70930;BME280;58588;48.102;19.682;2023-11-19T13:27:09;99386.22;;;6.01;100.00
70930;BME280;58588;48.102;19.682;2023-11-19T13:30:12;99396.13;;;6.09;100.00
70930;BME280;58588;48.102;19.682;2023-11-19T13:33:14;99380.78;;;6.19;100.00
70930;BME280;58588;48.102;19.682;2023-11-19T13:36:16;99377.78;;;6.22;100.00
70930;BME280;58588;48.102;19.682;2023-11-19T13:39:18;99385.03;;;6.30;100.00
70930;BME280;58588;48.102;19.682;2023-11-19T13:42:25;99386.25;;;6.09;100.00
70930;BME280;58588;48.102;19.682;2023-11-19T13:45:27;99396.59;;;6.04;100.00
70930;BME280;58588;48.102;19.682;2023-11-19T13:48:29;99398.19;;;6.23;100.00
70930;BME280;58588;48.102;19.682;2023-11-19T13:51:31;99382.13;;;6.23;100.00
70930;BME280;58588;48.102;19.682;2023-11-19T13:54:33;99386.00;;;6.29;100.00
70930;BME280;58588;48.102;19.682;2023-11-19T13:57:37;99372.25;;;6.24;100.00
70930;BME280;58588;48.102;19.682;2023-11-19T14:00:39;99369.78;;;6.30;100.00
70930;BME280;58588;48.102;19.682;2023-11-19T14:03:42;99346.00;;;6.27;100.00
70930;BME280;58588;48.102;19.682;2023-11-19T14:06:45;99335.47;;;6.26;100.00
70930;BME280;58588;48.102;19.682;2023-11-19T14:09:47;99318.72;;;6.24;100.00
70930;BME280;58588;48.102;19.682;2023-11-19T14:12:50;99321.94;;;6.35;100.00
70930;BME280;58588;48.102;19.682;2023-11-19T14:15:52;99337.69;;;6.38;100.00
70930;BME280;58588;48.102;19.682;2023-11-19T14:18:54;99321.63;;;6.30;100.00
70930;BME280;58588;48.102;19.682;2023-11-19T14:21:56;99364.47;;;6.38;100.00
70930;BME280;58588;48.102;19.682;2023-11-19T14:24:58;99359.53;;;6.68;99.34
70930;BME280;58588;48.102;19.682;2023-11-19T14:28:01;99357.72;;;6.85;98.15
70930;BME280;58588;48.102;19.682;2023-11-19T14:31:03;99363.25;;;7.00;96.29
70930;BME280;58588;48.102;19.682;2023-11-19T14:34:05;99368.91;;;6.88;95.91
70930;BME280;58588;48.102;19.682;2023-11-19T14:37:07;99377.78;;;6.81;97.02
70930;BME280;58588;48.102;19.682;2023-11-19T14:40:10;99379.28;;;6.67;98.54
70930;BME280;58588;48.102;19.682;2023-11-19T14:43:14;99392.53;;;6.85;99.38
70930;BME280;58588;48.102;19.682;2023-11-19T14:46:16;99392.72;;;6.41;99.08
70930;BME280;58588;48.102;19.682;2023-11-19T14:49:23;99399.34;;;6.63;99.57
70930;BME280;58588;48.102;19.682;2023-11-19T14:52:25;99392.91;;;6.39;99.99
70930;BME280;58588;48.102;19.682;2023-11-19T14:55:27;99389.91;;;6.42;100.00
70930;BME280;58588;48.102;19.682;2023-11-19T14:58:30;99411.00;;;6.11;100.00
70930;BME280;58588;48.102;19.682;2023-11-19T15:01:32;99401.75;;;5.98;100.00
70930;BME280;58588;48.102;19.682;2023-11-19T15:04:34;99398.97;;;5.63;100.00
70930;BME280;58588;48.102;19.682;2023-11-19T15:07:39;99399.78;;;5.56;100.00
70930;BME280;58588;48.102;19.682;2023-11-19T15:10:41;99400.84;;;5.45;100.00
70930;BME280;58588;48.102;19.682;2023-11-19T15:13:46;99392.19;;;5.25;100.00
70930;BME280;58588;48.102;19.682;2023-11-19T15:16:48;99403.09;;;5.76;100.00
70930;BME280;58588;48.102;19.682;2023-11-19T15:19:51;99376.09;;;6.21;100.00
70930;BME280;58588;48.102;19.682;2023-11-19T15:22:53;99373.31;;;5.97;100.00
70930;BME280;58588;48.102;19.682;2023-11-19T15:25:56;99361.59;;;5.98;100.00
70930;BME280;58588;48.102;19.682;2023-11-19T15:28:59;99359.41;;;5.67;100.00
70930;BME280;58588;48.102;19.682;2023-11-19T15:32:03;99365.16;;;5.54;100.00
70930;BME280;58588;48.102;19.682;2023-11-19T15:35:07;99369.72;;;5.62;100.00
70930;BME280;58588;48.102;19.682;2023-11-19T15:38:10;99354.38;;;5.64;100.00
70930;BME280;58588;48.102;19.682;2023-11-19T15:41:12;99359.25;;;5.69;100.00
70930;BME280;58588;48.102;19.682;2023-11-19T15:44:15;99365.31;;;5.79;100.00
70930;BME280;58588;48.102;19.682;2023-11-19T15:47:17;99339.09;;;5.56;100.00
70930;BME280;58588;48.102;19.682;2023-11-19T15:50:19;99336.06;;;5.51;100.00
70930;BME280;58588;48.102;19.682;2023-11-19T15:53:21;99340.75;;;5.49;100.00
70930;BME280;58588;48.102;19.682;2023-11-19T15:56:26;99347.25;;;5.47;100.00
70930;BME280;58588;48.102;19.682;2023-11-19T15:59:33;99349.72;;;5.40;100.00
70930;BME280;58588;48.102;19.682;2023-11-19T16:02:35;99328.78;;;5.35;100.00